createdAt,value
2022-08-22T00:00:36.416Z,19.03
2022-08-22T00:02:43.755Z,20.70
2022-08-22T00:03:11.174Z,20.44
2022-08-22T00:03:12.459Z,19.16
2022-08-22T00:03:30.275Z,18.99
2022-08-22T00:06:15.745Z,18.93
2022-08-22T00:09:04.801Z,18.95
2022-08-22T00:11:51.996Z,18.97
2022-08-22T00:14:33.077Z,18.95
2022-08-22T00:17:18.432Z,18.93
2022-08-22T00:20:09.730Z,18.92
2022-08-22T00:22:42.613Z,18.84
2022-08-22T00:25:29.917Z,18.86
2022-08-22T00:28:05.888Z,18.91
2022-08-22T00:30:45.276Z,18.90
2022-08-22T00:33:41.725Z,18.89
2022-08-22T00:36:43.491Z,18.89
2022-08-22T00:39:25.557Z,18.87
2022-08-22T00:42:31.815Z,18.80
2022-08-22T00:45:21.038Z,18.84
2022-08-22T00:48:07.022Z,18.81
2022-08-22T00:50:46.243Z,18.78
2022-08-22T00:53:22.350Z,18.78
2022-08-22T00:56:24.124Z,18.77
2022-08-22T00:59:22.836Z,18.77
2022-08-22T01:02:16.976Z,18.73
2022-08-22T01:05:00.866Z,18.68
2022-08-22T01:07:55.487Z,18.63
2022-08-22T01:10:37.675Z,18.67
2022-08-22T01:13:26.578Z,18.59
2022-08-22T01:16:10.637Z,18.62
2022-08-22T01:19:18.029Z,18.59
2022-08-22T01:21:56.965Z,18.57
2022-08-22T01:24:26.428Z,18.57
2022-08-22T01:27:12.600Z,18.51
2022-08-22T01:30:01.581Z,18.58
2022-08-22T01:32:48.891Z,18.56
2022-08-22T01:35:44.873Z,18.54
2022-08-22T01:38:38.053Z,18.51
2022-08-22T01:41:27.805Z,18.40
2022-08-22T01:44:18.078Z,18.37
2022-08-22T01:47:14.274Z,18.35
2022-08-22T01:49:47.963Z,18.40
2022-08-22T01:52:31.965Z,18.38
2022-08-22T01:55:07.848Z,18.34
2022-08-22T01:57:53.182Z,18.32
2022-08-22T02:00:34.739Z,18.32
2022-08-22T02:03:24.481Z,18.22
2022-08-22T02:06:08.048Z,18.26
2022-08-22T02:08:42.777Z,18.14
2022-08-22T02:11:35.025Z,18.20
2022-08-22T02:14:17.062Z,18.14
2022-08-22T02:16:48.359Z,18.07
2022-08-22T02:19:15.432Z,18.03
2022-08-22T02:22:23.532Z,18.01
2022-08-22T02:25:00.522Z,18.02
2022-08-22T02:27:43.452Z,18.01
2022-08-22T02:30:15.615Z,17.98
2022-08-22T02:32:42.185Z,17.94
2022-08-22T02:35:20.906Z,17.88
2022-08-22T02:37:47.835Z,17.90
2022-08-22T02:40:41.602Z,17.90
2022-08-22T02:43:20.931Z,17.89
2022-08-22T02:46:18.284Z,17.82
2022-08-22T02:49:05.900Z,17.86
2022-08-22T02:51:56.654Z,17.84
2022-08-22T02:54:31.214Z,17.83
2022-08-22T02:57:03.333Z,17.77
2022-08-22T02:59:38.239Z,17.76
2022-08-22T03:02:27.697Z,17.76
2022-08-22T03:04:59.701Z,17.75
2022-08-22T03:07:33.371Z,17.63
2022-08-22T03:10:36.543Z,17.71
2022-08-22T03:13:18.536Z,17.64
2022-08-22T03:15:58.138Z,17.66
2022-08-22T03:18:32.314Z,17.75
2022-08-22T03:21:09.444Z,17.78
2022-08-22T03:23:39.206Z,17.78
2022-08-22T03:26:07.496Z,17.77
2022-08-22T03:28:59.018Z,17.76
2022-08-22T03:31:29.560Z,17.77
2022-08-22T03:34:17.016Z,17.80
2022-08-22T03:37:02.561Z,17.86
2022-08-22T03:39:46.313Z,17.86
2022-08-22T03:42:15.991Z,17.95
2022-08-22T03:45:10.174Z,17.96
2022-08-22T03:48:10.218Z,18.00
2022-08-22T03:51:13.448Z,18.05
2022-08-22T03:53:46.430Z,18.12
2022-08-22T03:56:41.104Z,18.18
2022-08-22T03:59:29.545Z,18.26
2022-08-22T04:02:33.402Z,18.32
2022-08-22T04:05:17.170Z,18.33
2022-08-22T04:07:55.310Z,18.45
2022-08-22T04:10:58.976Z,18.41
2022-08-22T04:13:50.636Z,18.44
2022-08-22T04:16:36.592Z,18.40
2022-08-22T04:19:18.218Z,18.38
2022-08-22T04:22:09.954Z,18.31
2022-08-22T04:24:52.173Z,18.41
2022-08-22T04:27:41.290Z,18.43
2022-08-22T04:30:31.508Z,18.47
2022-08-22T04:33:06.599Z,18.41
2022-08-22T04:35:42.959Z,18.47
2022-08-22T04:38:24.001Z,18.47
2022-08-22T04:41:00.309Z,18.49
2022-08-22T04:44:07.899Z,18.50
2022-08-22T04:46:55.657Z,18.57
2022-08-22T04:49:29.272Z,18.59
2022-08-22T04:52:29.619Z,18.62
2022-08-22T04:55:22.063Z,18.66
2022-08-22T04:58:07.406Z,18.75
2022-08-22T05:01:02.523Z,18.79
2022-08-22T05:03:31.430Z,18.78
2022-08-22T05:06:01.088Z,18.76
2022-08-22T05:08:32.378Z,18.80
2022-08-22T05:11:01.253Z,18.85
2022-08-22T05:13:37.329Z,18.91
2022-08-22T05:16:10.700Z,18.93
2022-08-22T05:18:45.505Z,18.99
2022-08-22T05:21:15.463Z,19.08
2022-08-22T05:23:49.672Z,19.15
2022-08-22T05:26:18.709Z,19.26
2022-08-22T05:28:54.948Z,19.24
2022-08-22T05:31:27.529Z,19.26
2022-08-22T05:33:59.874Z,19.33
2022-08-22T05:36:30.753Z,19.26
2022-08-22T05:39:12.238Z,19.30
2022-08-22T05:41:40.799Z,19.25
2022-08-22T05:44:20.756Z,19.34
2022-08-22T05:47:29.010Z,19.40
2022-08-22T05:50:07.696Z,19.38
2022-08-22T05:52:56.487Z,19.52
2022-08-22T05:55:32.118Z,19.53
2022-08-22T05:58:34.382Z,19.53
2022-08-22T06:01:09.106Z,19.56
2022-08-22T06:03:44.886Z,19.61
2022-08-22T06:06:18.365Z,19.65
2022-08-22T06:08:58.492Z,19.69
2022-08-22T06:11:34.450Z,19.77
2022-08-22T06:14:17.017Z,19.84
2022-08-22T06:16:57.065Z,19.86
2022-08-22T06:19:24.440Z,19.95
2022-08-22T06:21:54.412Z,19.99
2022-08-22T06:24:26.953Z,20.06
2022-08-22T06:27:02.591Z,20.13
2022-08-22T06:29:35.311Z,20.19
2022-08-22T06:32:10.450Z,20.23
2022-08-22T06:34:41.386Z,20.30
2022-08-22T06:37:17.064Z,20.39
2022-08-22T06:39:49.125Z,20.48
2022-08-22T06:42:23.119Z,20.50
2022-08-22T06:44:59.994Z,20.61
2022-08-22T06:47:38.865Z,20.66
2022-08-22T06:50:13.919Z,20.69
2022-08-22T06:52:58.331Z,20.76
2022-08-22T06:55:28.228Z,20.82
2022-08-22T06:58:15.697Z,20.80
2022-08-22T07:00:47.562Z,20.88
2022-08-22T07:03:33.503Z,20.95
2022-08-22T07:06:01.083Z,21.04
2022-08-22T07:08:30.894Z,21.03
2022-08-22T07:11:14.251Z,21.06
2022-08-22T07:13:49.643Z,21.11
2022-08-22T07:16:16.641Z,21.08
2022-08-22T07:18:49.371Z,21.03
2022-08-22T07:21:29.547Z,21.05
2022-08-22T07:24:01.336Z,20.97
2022-08-22T07:26:46.012Z,21.02
2022-08-22T07:29:28.093Z,21.07
2022-08-22T07:32:03.215Z,21.10
2022-08-22T07:34:39.425Z,21.13
2022-08-22T07:37:17.870Z,21.23
2022-08-22T07:40:11.490Z,21.41
2022-08-22T07:43:02.764Z,21.54
2022-08-22T07:45:52.234Z,21.61
2022-08-22T07:48:26.499Z,21.61
2022-08-22T07:51:08.643Z,21.63
2022-08-22T07:53:50.566Z,21.67
2022-08-22T07:56:35.906Z,21.80
2022-08-22T07:59:13.175Z,21.86
2022-08-22T08:01:46.809Z,21.91
2022-08-22T08:04:19.484Z,21.98
2022-08-22T08:06:52.858Z,22.09
2022-08-22T08:09:20.673Z,22.20
2022-08-22T08:11:51.608Z,22.30
2022-08-22T08:14:21.908Z,22.32
2022-08-22T08:17:02.108Z,22.43
2022-08-22T08:19:34.768Z,22.45
2022-08-22T08:22:02.599Z,22.52
2022-08-22T08:24:40.031Z,22.62
2022-08-22T08:27:34.046Z,22.64
2022-08-22T08:30:15.192Z,22.70
2022-08-22T08:33:24.454Z,22.72
2022-08-22T08:36:02.824Z,22.82
2022-08-22T08:38:57.957Z,22.85
2022-08-22T08:41:58.291Z,22.83
2022-08-22T08:44:37.386Z,22.94
2022-08-22T08:47:15.462Z,23.00
2022-08-22T08:50:12.326Z,23.07
2022-08-22T08:53:07.538Z,23.07
2022-08-22T08:56:07.172Z,23.19
2022-08-22T08:58:59.897Z,23.26
2022-08-22T09:01:29.930Z,23.36
2022-08-22T09:04:21.955Z,23.46
2022-08-22T09:07:08.426Z,23.54
2022-08-22T09:09:52.296Z,23.53
2022-08-22T09:12:52.208Z,23.63
2022-08-22T09:15:37.480Z,23.68
2022-08-22T09:18:25.653Z,23.68
2022-08-22T09:21:41.221Z,23.78
2022-08-22T09:24:29.987Z,23.85
2022-08-22T09:27:08.688Z,23.86
2022-08-22T09:29:54.714Z,23.97
2022-08-22T09:32:30.395Z,24.02
2022-08-22T09:35:22.407Z,24.10
2022-08-22T09:38:05.152Z,24.20
2022-08-22T09:41:00.293Z,24.29
2022-08-22T09:43:38.053Z,24.37
2022-08-22T09:46:29.490Z,24.47
2022-08-22T09:49:06.672Z,24.55
2022-08-22T09:51:49.167Z,24.67
2022-08-22T09:54:31.563Z,24.73
2022-08-22T09:57:14.428Z,24.79
2022-08-22T10:00:05.791Z,24.88
2022-08-22T10:03:03.745Z,24.88
2022-08-22T10:06:00.462Z,24.94
2022-08-22T10:08:50.767Z,25.06
2022-08-22T10:11:28.855Z,25.15
2022-08-22T10:14:04.506Z,25.21
2022-08-22T10:16:43.228Z,25.27
2022-08-22T10:19:32.708Z,25.35
2022-08-22T10:22:12.067Z,25.41
2022-08-22T10:24:48.286Z,25.46
2022-08-22T10:27:32.604Z,25.50
2022-08-22T10:30:10.996Z,25.49
2022-08-22T10:33:12.118Z,25.49
2022-08-22T10:35:46.990Z,25.55
2022-08-22T10:38:46.350Z,25.56
2022-08-22T10:41:33.909Z,25.61
2022-08-22T10:44:12.707Z,25.70
2022-08-22T10:47:00.946Z,25.77
2022-08-22T10:49:39.267Z,25.79
2022-08-22T10:52:19.695Z,25.89
2022-08-22T10:54:51.343Z,25.88
2022-08-22T10:57:50.699Z,25.85
2022-08-22T11:00:46.231Z,25.86
2022-08-22T11:03:39.831Z,25.91
2022-08-22T11:06:13.907Z,26.03
2022-08-22T11:08:47.018Z,26.13
2022-08-22T11:11:24.705Z,26.20
2022-08-22T11:14:36.232Z,26.24
2022-08-22T11:17:30.846Z,26.27
2022-08-22T11:20:31.953Z,26.31
2022-08-22T11:23:21.781Z,26.36
2022-08-22T11:25:58.035Z,26.37
2022-08-22T11:28:42.026Z,26.41
2022-08-22T11:31:31.721Z,26.47
2022-08-22T11:34:31.471Z,26.49
2022-08-22T11:37:12.167Z,26.56
2022-08-22T11:39:45.568Z,26.55
2022-08-22T11:42:29.656Z,26.62
2022-08-22T11:45:00.210Z,26.64
2022-08-22T11:47:40.228Z,26.61
2022-08-22T11:50:27.781Z,26.69
2022-08-22T11:53:07.818Z,26.72
2022-08-22T11:55:47.975Z,26.83
2022-08-22T11:58:15.330Z,26.82
2022-08-22T12:00:55.430Z,26.90
2022-08-22T12:03:43.584Z,26.95
2022-08-22T12:06:46.852Z,27.00
2022-08-22T12:09:27.811Z,27.01
2022-08-22T12:12:18.396Z,27.06
2022-08-22T12:15:04.129Z,27.14
2022-08-22T12:18:01.225Z,27.19
2022-08-22T12:20:53.663Z,27.21
2022-08-22T12:23:23.270Z,27.22
2022-08-22T12:26:19.473Z,27.22
2022-08-22T12:29:28.569Z,27.23
2022-08-22T12:32:18.866Z,27.26
2022-08-22T12:35:14.226Z,27.23
2022-08-22T12:37:54.383Z,27.26
2022-08-22T12:40:28.399Z,27.28
2022-08-22T12:43:28.748Z,27.27
2022-08-22T12:46:12.977Z,27.28
2022-08-22T12:48:58.288Z,27.34
2022-08-22T12:51:50.570Z,27.37
2022-08-22T12:54:44.033Z,27.40
2022-08-22T12:57:36.044Z,27.38
2022-08-22T13:00:30.360Z,27.37
2022-08-22T13:03:02.058Z,27.41
2022-08-22T13:05:34.233Z,27.41
2022-08-22T13:08:13.893Z,27.35
2022-08-22T13:10:51.236Z,27.43
2022-08-22T13:13:43.519Z,27.42
2022-08-22T13:16:25.047Z,27.42
2022-08-22T13:19:01.269Z,27.37
2022-08-22T13:21:43.371Z,27.43
2022-08-22T13:24:38.656Z,27.37
2022-08-22T13:27:14.950Z,27.44
2022-08-22T13:29:52.051Z,27.43
2022-08-22T13:32:31.810Z,27.44
2022-08-22T13:35:00.159Z,27.43
2022-08-22T13:37:50.165Z,27.45
2022-08-22T13:40:47.751Z,27.43
2022-08-22T13:43:22.139Z,27.45
2022-08-22T13:45:54.592Z,27.40
2022-08-22T13:48:28.326Z,27.44
2022-08-22T13:51:26.500Z,27.43
2022-08-22T13:54:12.434Z,27.42
2022-08-22T13:57:16.431Z,27.39
2022-08-22T13:59:52.422Z,27.36
2022-08-22T14:02:52.180Z,27.34
2022-08-22T14:05:44.143Z,27.28
2022-08-22T14:08:20.295Z,27.32
2022-08-22T14:11:08.715Z,27.30
2022-08-22T14:13:42.689Z,27.23
2022-08-22T14:16:12.871Z,27.19
2022-08-22T14:18:50.123Z,27.17
2022-08-22T14:21:29.539Z,27.22
2022-08-22T14:24:31.010Z,27.22
2022-08-22T14:27:12.143Z,27.16
2022-08-22T14:29:50.210Z,27.20
2022-08-22T14:32:25.831Z,27.17
2022-08-22T14:35:13.558Z,27.10
2022-08-22T14:37:53.060Z,27.12
2022-08-22T14:40:29.020Z,27.09
2022-08-22T14:43:06.282Z,27.04
2022-08-22T14:45:40.643Z,27.01
2022-08-22T14:48:31.355Z,26.97
2022-08-22T14:51:10.193Z,26.95
2022-08-22T14:53:40.451Z,26.88
2022-08-22T14:56:15.593Z,26.90
2022-08-22T14:59:06.764Z,26.83
2022-08-22T15:01:54.472Z,26.86
2022-08-22T15:04:40.545Z,26.82
2022-08-22T15:07:10.619Z,26.81
2022-08-22T15:09:52.176Z,26.74
2022-08-22T15:12:37.841Z,26.70
2022-08-22T15:15:12.776Z,26.66
2022-08-22T15:17:50.762Z,26.58
2022-08-22T15:20:36.392Z,26.54
2022-08-22T15:23:21.887Z,26.56
2022-08-22T15:26:03.836Z,26.51
2022-08-22T15:28:52.285Z,26.48
2022-08-22T15:31:22.130Z,26.41
2022-08-22T15:33:50.589Z,26.35
2022-08-22T15:36:25.073Z,26.31
2022-08-22T15:39:16.682Z,26.27
2022-08-22T15:41:47.914Z,26.24
2022-08-22T15:44:33.129Z,26.16
2022-08-22T15:47:10.705Z,26.14
2022-08-22T15:50:05.585Z,26.04
2022-08-22T15:52:59.836Z,26.04
2022-08-22T15:55:34.535Z,25.95
2022-08-22T15:58:06.728Z,25.96
2022-08-22T16:00:43.700Z,25.91
2022-08-22T16:03:26.456Z,25.88
2022-08-22T16:06:07.854Z,25.82
2022-08-22T16:08:51.659Z,25.75
2022-08-22T16:11:33.493Z,25.77
2022-08-22T16:14:23.425Z,25.73
2022-08-22T16:16:51.189Z,25.69
2022-08-22T16:19:22.402Z,25.64
2022-08-22T16:21:51.740Z,25.61
2022-08-22T16:24:18.710Z,25.59
2022-08-22T16:26:46.247Z,25.54
2022-08-22T16:29:17.961Z,25.50
2022-08-22T16:31:47.868Z,25.46
2022-08-22T16:34:20.543Z,25.42
2022-08-22T16:37:02.800Z,25.37
2022-08-22T16:39:40.811Z,25.31
2022-08-22T16:42:21.866Z,25.25
2022-08-22T16:44:51.858Z,25.17
2022-08-22T16:47:23.382Z,25.13
2022-08-22T16:49:49.979Z,25.05
2022-08-22T16:52:26.033Z,25.00
2022-08-22T16:54:55.788Z,24.92
2022-08-22T16:57:29.515Z,24.89
2022-08-22T17:00:38.566Z,24.83
2022-08-22T17:03:11.161Z,24.83
2022-08-22T17:05:55.191Z,24.79
2022-08-22T17:08:43.742Z,24.72
2022-08-22T17:11:47.785Z,24.54
2022-08-22T17:14:20.272Z,24.60
2022-08-22T17:17:02.685Z,24.55
2022-08-22T17:19:47.869Z,24.51
2022-08-22T17:22:32.945Z,24.45
2022-08-22T17:25:18.678Z,24.40
2022-08-22T17:27:51.822Z,24.37
2022-08-22T17:30:41.315Z,24.34
2022-08-22T17:33:43.280Z,24.31
2022-08-22T17:36:26.709Z,24.28
2022-08-22T17:39:16.018Z,24.25
2022-08-22T17:41:50.370Z,24.18
2022-08-22T17:44:37.694Z,24.13
2022-08-22T17:47:27.640Z,24.06
2022-08-22T17:50:03.713Z,24.03
2022-08-22T17:52:47.031Z,23.98
2022-08-22T17:55:32.915Z,23.89
2022-08-22T17:58:11.841Z,23.87
2022-08-22T18:00:51.701Z,23.83
2022-08-22T18:03:27.549Z,23.80
2022-08-22T18:06:10.255Z,23.74
2022-08-22T18:11:51.645Z,23.66
2022-08-22T18:14:29.930Z,23.61
2022-08-22T18:16:59.377Z,23.59
2022-08-22T18:19:45.235Z,23.53
2022-08-22T18:22:43.454Z,23.49
2022-08-22T18:25:27.586Z,23.45
2022-08-22T18:28:09.833Z,23.40
2022-08-22T18:30:50.696Z,23.32
2022-08-22T18:33:31.000Z,23.35
2022-08-22T18:36:11.472Z,23.26
2022-08-22T18:38:52.397Z,23.29
2022-08-22T18:41:19.254Z,23.28
2022-08-22T18:43:50.706Z,23.25
2022-08-22T18:46:29.838Z,23.24
2022-08-22T18:49:14.562Z,23.19
2022-08-22T18:51:42.126Z,23.23
2022-08-22T18:54:10.699Z,23.21
2022-08-22T18:57:05.626Z,23.19
2022-08-22T18:59:41.538Z,23.17
2022-08-22T19:02:33.613Z,23.14
2022-08-22T19:05:31.734Z,23.12
2022-08-22T19:08:22.712Z,23.08
2022-08-22T19:11:35.069Z,23.05
2022-08-22T19:14:42.133Z,23.02
2022-08-22T19:17:27.562Z,22.97
2022-08-22T19:20:40.717Z,22.92
2022-08-22T19:23:32.806Z,22.89
2022-08-22T19:26:30.630Z,22.87
2022-08-22T19:29:01.690Z,22.83
2022-08-22T19:31:44.121Z,22.79
2022-08-22T19:34:29.401Z,22.75
2022-08-22T19:37:30.482Z,22.72
2022-08-22T19:40:11.300Z,22.69
2022-08-22T19:42:41.428Z,22.58
2022-08-22T19:45:25.660Z,22.61
2022-08-22T19:47:59.702Z,22.58
2022-08-22T19:50:33.029Z,22.54
2022-08-22T19:53:18.646Z,22.50
2022-08-22T19:56:12.786Z,22.45
2022-08-22T19:59:16.559Z,22.43
2022-08-22T20:02:04.861Z,22.40
2022-08-22T20:04:55.013Z,22.34
2022-08-22T20:08:09.555Z,22.32
2022-08-22T20:10:51.394Z,22.28
2022-08-22T20:13:18.816Z,22.17
2022-08-22T20:16:08.449Z,22.19
2022-08-22T20:19:07.913Z,22.16
2022-08-22T20:22:02.171Z,22.11
2022-08-22T20:24:40.264Z,22.08
2022-08-22T20:27:27.588Z,22.04
2022-08-22T20:30:07.896Z,22.01
2022-08-22T20:32:43.163Z,22.00
2022-08-22T20:35:17.864Z,21.97
2022-08-22T20:38:06.692Z,21.94
2022-08-22T20:41:11.368Z,21.90
2022-08-22T20:43:47.325Z,21.85
2022-08-22T20:46:24.003Z,21.82
2022-08-22T20:48:54.439Z,21.71
2022-08-22T20:51:26.148Z,21.69
2022-08-22T20:54:15.391Z,21.68
2022-08-22T20:56:55.917Z,21.64
2022-08-22T20:59:25.703Z,21.59
2022-08-22T21:01:58.795Z,21.57
2022-08-22T21:04:30.889Z,21.48
2022-08-22T21:07:01.723Z,21.51
2022-08-22T21:09:47.980Z,21.42
2022-08-22T21:12:15.332Z,21.43
2022-08-22T21:14:46.284Z,21.42
2022-08-22T21:17:24.459Z,21.40
2022-08-22T21:19:52.524Z,21.40
2022-08-22T21:22:28.520Z,21.37
2022-08-22T21:24:58.145Z,21.37
2022-08-22T21:27:30.252Z,21.37
2022-08-22T21:30:00.098Z,21.34
2022-08-22T21:32:37.553Z,21.31
2022-08-22T21:35:18.076Z,21.25
2022-08-22T21:37:46.436Z,21.21
2022-08-22T21:40:18.066Z,21.19
2022-08-22T21:43:10.900Z,21.20
2022-08-22T21:45:37.869Z,21.19
2022-08-22T21:48:43.951Z,21.15
2022-08-22T21:51:41.034Z,21.14
2022-08-22T21:54:32.625Z,21.10
2022-08-22T21:57:08.468Z,21.07
2022-08-22T21:59:52.188Z,21.07
2022-08-22T22:02:35.305Z,21.03
2022-08-22T22:05:14.050Z,21.01
2022-08-22T22:07:43.572Z,20.99
2022-08-22T22:10:14.048Z,20.96
2022-08-22T22:12:43.045Z,20.94
2022-08-22T22:15:14.153Z,20.86
2022-08-22T22:17:40.963Z,20.91
2022-08-22T22:20:08.676Z,20.91
2022-08-22T22:22:37.054Z,20.87
2022-08-22T22:25:39.597Z,20.88
2022-08-22T22:28:08.775Z,20.85
2022-08-22T22:30:36.120Z,20.86
2022-08-22T22:33:02.959Z,20.83
2022-08-22T22:35:30.403Z,20.77
2022-08-22T22:37:57.260Z,20.80
2022-08-22T22:40:24.423Z,20.81
2022-08-22T22:42:51.478Z,20.79
2022-08-22T22:45:18.207Z,20.73
2022-08-22T22:47:44.910Z,20.72
2022-08-22T22:50:11.819Z,20.49
2022-08-22T22:52:40.785Z,20.72
2022-08-22T22:55:09.036Z,20.67
2022-08-22T22:57:41.358Z,20.70
2022-08-22T23:00:11.608Z,20.70
2022-08-22T23:02:39.740Z,20.68
2022-08-22T23:05:07.830Z,20.62
2022-08-22T23:07:35.369Z,20.61
2022-08-22T23:10:05.186Z,20.62
2022-08-22T23:12:34.682Z,20.63
2022-08-22T23:15:01.541Z,20.60
2022-08-22T23:17:28.582Z,20.58
2022-08-22T23:19:55.242Z,20.48
2022-08-22T23:22:22.135Z,20.51
2022-08-22T23:24:50.097Z,20.49
2022-08-22T23:27:16.951Z,20.41
2022-08-22T23:29:45.284Z,20.43
2022-08-22T23:32:12.904Z,20.42
2022-08-22T23:34:44.054Z,20.33
2022-08-22T23:37:10.799Z,20.34
2022-08-22T23:39:40.486Z,20.31
2022-08-22T23:42:08.620Z,20.22
2022-08-22T23:44:37.569Z,20.24
2022-08-22T23:47:05.995Z,20.19
2022-08-22T23:49:33.900Z,20.08
2022-08-22T23:52:01.059Z,20.11
2022-08-22T23:54:28.075Z,20.07
2022-08-22T23:56:57.795Z,20.05
2022-08-22T23:59:30.704Z,20.03
